Terminal Aerodrome Forecast
Issued by NWS Goodland, KS

Home | Current Version | Previous Version | Text Only | Print | Product List | Glossary On
Versions: 1 2 3 4 5 6 7 8 9 10 11 12
775
FTUS43 KGLD 210522
TAFGLD
TAF
KGLD 210522Z 2106/2206 17010KT P6SM FEW050 SCT250 WS020/19040KT
     FM211000 20010KT P6SM FEW045 SCT250
     FM211700 20012G20KT P6SM SCT045 BKN200
     FM220100 18008KT P6SM FEW045 SCT200
     FM220500 29005KT P6SM SCT010 SCT250=

USA.gov is the U.S. government's official web portal to all federal, state and local government web resources and services.